Terminal Aerodrome Forecast
Issued by NWS

Home | Current Version | Previous Version | Text Only | Print | Product List | Glossary Off
Versions: 1 2 3 4 5 6 7 8 9 10 11 12 13 14 15 16 17

000
FTUS43 KABR 272300
TAFATY
TAF
KATY 272321Z 2800/2824 33012G23KT P6SM OVC035
     FM280300 VRB05KT P6SM SCT050
      TEMPO 2803/2806 BKN050
     FM281500 35009KT P6SM SKC=

USA.gov is the U.S. government's official web portal to all federal, state and local government web resources and services.